sensor_id;sensor_type;location;lat;lon;timestamp;P1;durP1;ratioP1;P2;durP2;ratioP2
26211;SDS011;13951;49.516;6.094;2024-01-15T00:01:56;31.27;;;10.00;;
26211;SDS011;13951;49.516;6.094;2024-01-15T00:04:29;27.63;;;9.17;;
26211;SDS011;13951;49.516;6.094;2024-01-15T00:07:03;28.87;;;9.30;;
26211;SDS011;13951;49.516;6.094;2024-01-15T00:09:36;25.53;;;9.17;;
26211;SDS011;13951;49.516;6.094;2024-01-15T00:12:10;32.73;;;9.23;;
26211;SDS011;13951;49.516;6.094;2024-01-15T00:14:43;30.57;;;10.23;;
26211;SDS011;13951;49.516;6.094;2024-01-15T00:17:16;32.63;;;9.77;;
26211;SDS011;13951;49.516;6.094;2024-01-15T00:19:49;35.83;;;11.57;;
26211;SDS011;13951;49.516;6.094;2024-01-15T00:22:24;27.83;;;8.87;;
26211;SDS011;13951;49.516;6.094;2024-01-15T00:24:58;27.80;;;8.47;;
26211;SDS011;13951;49.516;6.094;2024-01-15T00:27:32;34.83;;;9.97;;
26211;SDS011;13951;49.516;6.094;2024-01-15T00:30:05;26.03;;;10.17;;
26211;SDS011;13951;49.516;6.094;2024-01-15T00:32:39;26.97;;;9.63;;
26211;SDS011;13951;49.516;6.094;2024-01-15T00:35:12;29.30;;;9.67;;
26211;SDS011;13951;49.516;6.094;2024-01-15T00:37:45;31.30;;;10.27;;
26211;SDS011;13951;49.516;6.094;2024-01-15T00:40:18;30.90;;;10.77;;
26211;SDS011;13951;49.516;6.094;2024-01-15T00:42:52;28.73;;;8.90;;
26211;SDS011;13951;49.516;6.094;2024-01-15T00:45:25;33.70;;;10.77;;
26211;SDS011;13951;49.516;6.094;2024-01-15T00:47:58;23.17;;;9.80;;
26211;SDS011;13951;49.516;6.094;2024-01-15T00:50:33;28.87;;;9.53;;
26211;SDS011;13951;49.516;6.094;2024-01-15T00:53:06;31.90;;;10.80;;
26211;SDS011;13951;49.516;6.094;2024-01-15T00:55:40;29.80;;;9.33;;
26211;SDS011;13951;49.516;6.094;2024-01-15T00:58:13;30.37;;;8.87;;
26211;SDS011;13951;49.516;6.094;2024-01-15T01:00:46;29.97;;;9.67;;
26211;SDS011;13951;49.516;6.094;2024-01-15T01:03:19;28.17;;;10.23;;
26211;SDS011;13951;49.516;6.094;2024-01-15T01:05:52;34.03;;;10.63;;
26211;SDS011;13951;49.516;6.094;2024-01-15T01:08:25;33.80;;;10.43;;
26211;SDS011;13951;49.516;6.094;2024-01-15T01:10:58;30.83;;;10.90;;
26211;SDS011;13951;49.516;6.094;2024-01-15T01:13:32;35.47;;;10.70;;
26211;SDS011;13951;49.516;6.094;2024-01-15T01:16:05;35.43;;;11.23;;
26211;SDS011;13951;49.516;6.094;2024-01-15T01:18:38;34.13;;;11.00;;
26211;SDS011;13951;49.516;6.094;2024-01-15T01:21:12;44.50;;;16.17;;
26211;SDS011;13951;49.516;6.094;2024-01-15T01:23:45;36.13;;;12.20;;
26211;SDS011;13951;49.516;6.094;2024-01-15T01:26:18;31.70;;;11.27;;
26211;SDS011;13951;49.516;6.094;2024-01-15T01:28:51;30.53;;;9.83;;
26211;SDS011;13951;49.516;6.094;2024-01-15T01:31:24;28.97;;;9.97;;
26211;SDS011;13951;49.516;6.094;2024-01-15T01:33:58;28.43;;;10.53;;
26211;SDS011;13951;49.516;6.094;2024-01-15T01:36:31;31.67;;;10.37;;
26211;SDS011;13951;49.516;6.094;2024-01-15T01:39:05;31.40;;;10.30;;
26211;SDS011;13951;49.516;6.094;2024-01-15T01:41:38;31.07;;;10.60;;
26211;SDS011;13951;49.516;6.094;2024-01-15T01:44:12;31.23;;;10.10;;
26211;SDS011;13951;49.516;6.094;2024-01-15T01:46:45;30.40;;;10.77;;
26211;SDS011;13951;49.516;6.094;2024-01-15T01:49:18;32.83;;;10.30;;
26211;SDS011;13951;49.516;6.094;2024-01-15T01:51:51;26.20;;;9.80;;
26211;SDS011;13951;49.516;6.094;2024-01-15T01:54:26;30.57;;;10.93;;
26211;SDS011;13951;49.516;6.094;2024-01-15T01:57:02;33.43;;;10.77;;
26211;SDS011;13951;49.516;6.094;2024-01-15T01:59:37;25.10;;;8.33;;
26211;SDS011;13951;49.516;6.094;2024-01-15T02:02:11;30.67;;;9.73;;
26211;SDS011;13951;49.516;6.094;2024-01-15T02:04:44;29.30;;;10.27;;
26211;SDS011;13951;49.516;6.094;2024-01-15T02:07:20;31.17;;;10.20;;
26211;SDS011;13951;49.516;6.094;2024-01-15T02:09:54;26.13;;;10.97;;
26211;SDS011;13951;49.516;6.094;2024-01-15T02:12:27;29.53;;;10.17;;
26211;SDS011;13951;49.516;6.094;2024-01-15T02:15:00;30.80;;;9.63;;
26211;SDS011;13951;49.516;6.094;2024-01-15T02:17:33;34.50;;;9.97;;
26211;SDS011;13951;49.516;6.094;2024-01-15T02:20:08;34.83;;;10.80;;
26211;SDS011;13951;49.516;6.094;2024-01-15T02:22:41;31.40;;;10.83;;
26211;SDS011;13951;49.516;6.094;2024-01-15T02:25:14;39.27;;;11.47;;
26211;SDS011;13951;49.516;6.094;2024-01-15T02:27:48;32.67;;;10.67;;
26211;SDS011;13951;49.516;6.094;2024-01-15T02:30:21;37.40;;;11.93;;
26211;SDS011;13951;49.516;6.094;2024-01-15T02:32:58;35.33;;;12.27;;
26211;SDS011;13951;49.516;6.094;2024-01-15T02:35:31;35.03;;;10.93;;
26211;SDS011;13951;49.516;6.094;2024-01-15T02:38:05;34.43;;;11.90;;
26211;SDS011;13951;49.516;6.094;2024-01-15T02:40:39;39.00;;;12.23;;
26211;SDS011;13951;49.516;6.094;2024-01-15T02:43:12;33.70;;;11.80;;
26211;SDS011;13951;49.516;6.094;2024-01-15T02:45:46;29.13;;;10.77;;
26211;SDS011;13951;49.516;6.094;2024-01-15T02:48:20;33.80;;;10.23;;
26211;SDS011;13951;49.516;6.094;2024-01-15T02:50:53;30.70;;;11.23;;
26211;SDS011;13951;49.516;6.094;2024-01-15T02:53:26;30.03;;;11.10;;
26211;SDS011;13951;49.516;6.094;2024-01-15T02:55:59;32.70;;;11.00;;
26211;SDS011;13951;49.516;6.094;2024-01-15T02:58:32;34.57;;;11.50;;
26211;SDS011;13951;49.516;6.094;2024-01-15T03:01:05;34.87;;;11.90;;
26211;SDS011;13951;49.516;6.094;2024-01-15T03:03:39;38.13;;;11.70;;
26211;SDS011;13951;49.516;6.094;2024-01-15T03:06:13;30.90;;;12.00;;
26211;SDS011;13951;49.516;6.094;2024-01-15T03:08:46;30.37;;;10.67;;
26211;SDS011;13951;49.516;6.094;2024-01-15T03:11:19;33.67;;;10.80;;
26211;SDS011;13951;49.516;6.094;2024-01-15T03:13:52;30.73;;;10.80;;
26211;SDS011;13951;49.516;6.094;2024-01-15T03:16:25;32.50;;;10.43;;
26211;SDS011;13951;49.516;6.094;2024-01-15T03:18:58;32.80;;;10.30;;
26211;SDS011;13951;49.516;6.094;2024-01-15T03:21:32;30.43;;;10.83;;
26211;SDS011;13951;49.516;6.094;2024-01-15T03:24:05;33.70;;;10.60;;
26211;SDS011;13951;49.516;6.094;2024-01-15T03:26:38;34.50;;;11.40;;
26211;SDS011;13951;49.516;6.094;2024-01-15T03:29:11;27.87;;;9.20;;
26211;SDS011;13951;49.516;6.094;2024-01-15T03:31:44;31.97;;;11.40;;
26211;SDS011;13951;49.516;6.094;2024-01-15T03:34:18;24.43;;;10.37;;
26211;SDS011;13951;49.516;6.094;2024-01-15T03:36:51;26.77;;;11.23;;
26211;SDS011;13951;49.516;6.094;2024-01-15T03:39:24;29.87;;;11.37;;
26211;SDS011;13951;49.516;6.094;2024-01-15T03:41:57;28.30;;;11.20;;
26211;SDS011;13951;49.516;6.094;2024-01-15T03:44:31;28.50;;;11.10;;
26211;SDS011;13951;49.516;6.094;2024-01-15T03:47:04;27.93;;;10.00;;
26211;SDS011;13951;49.516;6.094;2024-01-15T03:49:37;32.23;;;11.33;;
26211;SDS011;13951;49.516;6.094;2024-01-15T03:52:10;27.73;;;10.87;;
26211;SDS011;13951;49.516;6.094;2024-01-15T03:54:43;31.30;;;11.80;;
26211;SDS011;13951;49.516;6.094;2024-01-15T03:57:17;29.70;;;10.67;;
26211;SDS011;13951;49.516;6.094;2024-01-15T03:59:50;30.33;;;10.57;;
26211;SDS011;13951;49.516;6.094;2024-01-15T04:02:23;33.03;;;11.40;;
26211;SDS011;13951;49.516;6.094;2024-01-15T04:04:56;34.20;;;11.77;;
26211;SDS011;13951;49.516;6.094;2024-01-15T04:07:29;30.27;;;11.03;;
26211;SDS011;13951;49.516;6.094;2024-01-15T04:10:02;31.37;;;11.20;;
26211;SDS011;13951;49.516;6.094;2024-01-15T04:12:36;34.23;;;12.10;;
26211;SDS011;13951;49.516;6.094;2024-01-15T04:15:09;34.87;;;11.00;;
26211;SDS011;13951;49.516;6.094;2024-01-15T04:17:42;30.10;;;11.57;;
26211;SDS011;13951;49.516;6.094;2024-01-15T04:20:15;33.97;;;11.60;;
26211;SDS011;13951;49.516;6.094;2024-01-15T04:22:48;32.10;;;11.30;;
26211;SDS011;13951;49.516;6.094;2024-01-15T04:25:21;31.73;;;11.70;;
26211;SDS011;13951;49.516;6.094;2024-01-15T04:27:55;36.03;;;12.37;;
26211;SDS011;13951;49.516;6.094;2024-01-15T04:30:28;37.47;;;12.73;;
26211;SDS011;13951;49.516;6.094;2024-01-15T04:33:01;34.77;;;12.33;;
26211;SDS011;13951;49.516;6.094;2024-01-15T04:35:34;37.53;;;12.33;;
26211;SDS011;13951;49.516;6.094;2024-01-15T04:38:08;34.27;;;13.07;;
26211;SDS011;13951;49.516;6.094;2024-01-15T04:40:41;36.23;;;12.63;;
26211;SDS011;13951;49.516;6.094;2024-01-15T04:43:14;27.47;;;10.67;;
26211;SDS011;13951;49.516;6.094;2024-01-15T04:45:47;37.03;;;13.27;;
26211;SDS011;13951;49.516;6.094;2024-01-15T04:48:20;31.50;;;11.47;;
26211;SDS011;13951;49.516;6.094;2024-01-15T04:50:55;40.77;;;12.87;;
26211;SDS011;13951;49.516;6.094;2024-01-15T04:53:28;33.67;;;12.17;;
26211;SDS011;13951;49.516;6.094;2024-01-15T04:56:01;32.90;;;11.77;;
26211;SDS011;13951;49.516;6.094;2024-01-15T04:58:34;34.33;;;11.57;;
26211;SDS011;13951;49.516;6.094;2024-01-15T05:01:08;29.67;;;10.97;;
26211;SDS011;13951;49.516;6.094;2024-01-15T05:03:42;29.23;;;10.83;;
26211;SDS011;13951;49.516;6.094;2024-01-15T05:06:15;26.87;;;10.57;;
26211;SDS011;13951;49.516;6.094;2024-01-15T05:08:48;26.50;;;9.70;;
26211;SDS011;13951;49.516;6.094;2024-01-15T05:11:21;26.17;;;10.07;;
26211;SDS011;13951;49.516;6.094;2024-01-15T05:13:55;28.37;;;10.70;;
26211;SDS011;13951;49.516;6.094;2024-01-15T05:16:28;27.07;;;9.50;;
26211;SDS011;13951;49.516;6.094;2024-01-15T05:19:01;21.30;;;7.83;;
26211;SDS011;13951;49.516;6.094;2024-01-15T05:21:34;29.30;;;8.93;;
26211;SDS011;13951;49.516;6.094;2024-01-15T05:24:07;24.20;;;10.10;;
26211;SDS011;13951;49.516;6.094;2024-01-15T05:26:41;28.80;;;9.47;;
26211;SDS011;13951;49.516;6.094;2024-01-15T05:29:14;34.80;;;12.07;;
26211;SDS011;13951;49.516;6.094;2024-01-15T05:31:47;26.50;;;10.13;;
26211;SDS011;13951;49.516;6.094;2024-01-15T05:34:20;30.43;;;11.43;;
26211;SDS011;13951;49.516;6.094;2024-01-15T05:36:53;34.27;;;12.20;;
26211;SDS011;13951;49.516;6.094;2024-01-15T05:39:26;29.43;;;10.80;;
26211;SDS011;13951;49.516;6.094;2024-01-15T05:42:00;26.93;;;10.13;;
26211;SDS011;13951;49.516;6.094;2024-01-15T05:44:33;32.33;;;10.47;;
26211;SDS011;13951;49.516;6.094;2024-01-15T05:47:06;37.60;;;12.53;;
26211;SDS011;13951;49.516;6.094;2024-01-15T05:49:40;35.03;;;11.97;;
26211;SDS011;13951;49.516;6.094;2024-01-15T05:52:13;31.87;;;11.57;;
26211;SDS011;13951;49.516;6.094;2024-01-15T05:54:46;27.50;;;10.73;;
26211;SDS011;13951;49.516;6.094;2024-01-15T05:57:20;36.17;;;12.90;;
26211;SDS011;13951;49.516;6.094;2024-01-15T05:59:54;38.00;;;12.60;;
26211;SDS011;13951;49.516;6.094;2024-01-15T06:02:27;34.97;;;12.57;;
26211;SDS011;13951;49.516;6.094;2024-01-15T06:05:00;38.00;;;12.53;;
26211;SDS011;13951;49.516;6.094;2024-01-15T06:07:35;33.53;;;11.23;;
26211;SDS011;13951;49.516;6.094;2024-01-15T06:10:09;30.13;;;12.20;;
26211;SDS011;13951;49.516;6.094;2024-01-15T06:12:43;36.90;;;11.67;;
26211;SDS011;13951;49.516;6.094;2024-01-15T06:15:16;35.40;;;11.53;;
26211;SDS011;13951;49.516;6.094;2024-01-15T06:17:50;30.10;;;11.47;;
26211;SDS011;13951;49.516;6.094;2024-01-15T06:20:23;26.27;;;11.23;;
26211;SDS011;13951;49.516;6.094;2024-01-15T06:22:56;34.90;;;11.83;;
26211;SDS011;13951;49.516;6.094;2024-01-15T06:25:29;35.03;;;11.70;;
26211;SDS011;13951;49.516;6.094;2024-01-15T06:28:02;33.07;;;11.30;;
26211;SDS011;13951;49.516;6.094;2024-01-15T06:30:37;33.30;;;11.60;;
26211;SDS011;13951;49.516;6.094;2024-01-15T06:33:11;31.00;;;11.77;;
26211;SDS011;13951;49.516;6.094;2024-01-15T06:35:45;31.40;;;11.00;;
26211;SDS011;13951;49.516;6.094;2024-01-15T06:38:18;35.30;;;12.20;;
26211;SDS011;13951;49.516;6.094;2024-01-15T06:40:51;30.13;;;11.17;;
26211;SDS011;13951;49.516;6.094;2024-01-15T06:43:25;34.87;;;11.80;;
26211;SDS011;13951;49.516;6.094;2024-01-15T06:45:58;29.63;;;11.97;;
26211;SDS011;13951;49.516;6.094;2024-01-15T06:48:36;27.07;;;10.67;;
26211;SDS011;13951;49.516;6.094;2024-01-15T06:51:10;29.97;;;11.50;;
26211;SDS011;13951;49.516;6.094;2024-01-15T06:53:43;28.37;;;10.63;;
26211;SDS011;13951;49.516;6.094;2024-01-15T06:56:16;30.73;;;12.13;;
26211;SDS011;13951;49.516;6.094;2024-01-15T06:58:49;27.67;;;10.20;;
26211;SDS011;13951;49.516;6.094;2024-01-15T07:01:22;25.53;;;10.83;;
26211;SDS011;13951;49.516;6.094;2024-01-15T07:03:55;25.47;;;10.07;;
26211;SDS011;13951;49.516;6.094;2024-01-15T07:06:29;30.07;;;9.83;;
26211;SDS011;13951;49.516;6.094;2024-01-15T07:09:03;22.60;;;9.43;;
26211;SDS011;13951;49.516;6.094;2024-01-15T07:11:36;22.53;;;9.80;;
26211;SDS011;13951;49.516;6.094;2024-01-15T07:14:10;24.17;;;9.23;;
26211;SDS011;13951;49.516;6.094;2024-01-15T07:16:43;25.73;;;10.50;;
26211;SDS011;13951;49.516;6.094;2024-01-15T07:19:20;24.40;;;9.20;;
26211;SDS011;13951;49.516;6.094;2024-01-15T07:21:53;22.70;;;8.53;;
26211;SDS011;13951;49.516;6.094;2024-01-15T07:24:28;25.47;;;9.73;;
26211;SDS011;13951;49.516;6.094;2024-01-15T07:27:01;23.73;;;9.90;;
26211;SDS011;13951;49.516;6.094;2024-01-15T07:29:37;21.57;;;8.80;;
26211;SDS011;13951;49.516;6.094;2024-01-15T07:32:15;19.13;;;8.30;;
26211;SDS011;13951;49.516;6.094;2024-01-15T07:34:48;21.67;;;7.93;;
26211;SDS011;13951;49.516;6.094;2024-01-15T07:37:22;18.03;;;7.73;;
26211;SDS011;13951;49.516;6.094;2024-01-15T07:39:56;17.73;;;7.47;;
26211;SDS011;13951;49.516;6.094;2024-01-15T07:42:29;17.60;;;7.10;;
26211;SDS011;13951;49.516;6.094;2024-01-15T07:45:02;19.53;;;7.73;;
26211;SDS011;13951;49.516;6.094;2024-01-15T07:47:36;16.63;;;7.70;;
26211;SDS011;13951;49.516;6.094;2024-01-15T07:50:09;17.17;;;7.93;;
26211;SDS011;13951;49.516;6.094;2024-01-15T07:52:43;17.53;;;7.43;;
26211;SDS011;13951;49.516;6.094;2024-01-15T07:55:16;17.73;;;7.60;;
26211;SDS011;13951;49.516;6.094;2024-01-15T07:57:49;16.37;;;7.80;;
26211;SDS011;13951;49.516;6.094;2024-01-15T08:00:37;14.37;;;7.17;;
26211;SDS011;13951;49.516;6.094;2024-01-15T08:03:11;19.77;;;7.07;;
26211;SDS011;13951;49.516;6.094;2024-01-15T08:05:44;18.30;;;7.73;;
26211;SDS011;13951;49.516;6.094;2024-01-15T08:08:18;18.60;;;7.17;;
26211;SDS011;13951;49.516;6.094;2024-01-15T08:10:54;18.23;;;7.20;;
26211;SDS011;13951;49.516;6.094;2024-01-15T08:13:27;16.20;;;6.87;;
26211;SDS011;13951;49.516;6.094;2024-01-15T08:16:00;17.70;;;7.47;;
26211;SDS011;13951;49.516;6.094;2024-01-15T08:18:34;18.40;;;7.60;;
26211;SDS011;13951;49.516;6.094;2024-01-15T08:21:08;21.40;;;7.77;;
26211;SDS011;13951;49.516;6.094;2024-01-15T08:23:41;20.53;;;8.73;;
26211;SDS011;13951;49.516;6.094;2024-01-15T08:26:14;20.20;;;7.23;;
26211;SDS011;13951;49.516;6.094;2024-01-15T08:28:48;17.37;;;7.07;;
26211;SDS011;13951;49.516;6.094;2024-01-15T08:31:21;19.37;;;7.43;;
26211;SDS011;13951;49.516;6.094;2024-01-15T08:33:54;17.47;;;8.43;;
26211;SDS011;13951;49.516;6.094;2024-01-15T08:36:28;22.00;;;8.43;;
26211;SDS011;13951;49.516;6.094;2024-01-15T08:39:04;21.10;;;8.27;;
26211;SDS011;13951;49.516;6.094;2024-01-15T08:41:37;22.60;;;9.53;;
26211;SDS011;13951;49.516;6.094;2024-01-15T08:44:11;21.33;;;9.17;;
26211;SDS011;13951;49.516;6.094;2024-01-15T08:46:44;23.03;;;9.70;;
26211;SDS011;13951;49.516;6.094;2024-01-15T08:49:17;23.87;;;8.90;;
26211;SDS011;13951;49.516;6.094;2024-01-15T08:51:50;21.37;;;9.13;;
26211;SDS011;13951;49.516;6.094;2024-01-15T08:54:23;27.17;;;9.43;;
26211;SDS011;13951;49.516;6.094;2024-01-15T08:56:56;24.57;;;9.57;;
26211;SDS011;13951;49.516;6.094;2024-01-15T08:59:29;23.00;;;8.90;;
26211;SDS011;13951;49.516;6.094;2024-01-15T09:02:03;22.73;;;8.83;;
26211;SDS011;13951;49.516;6.094;2024-01-15T09:04:36;21.70;;;8.93;;
26211;SDS011;13951;49.516;6.094;2024-01-15T09:07:09;20.10;;;8.60;;
26211;SDS011;13951;49.516;6.094;2024-01-15T09:09:42;17.87;;;8.27;;
26211;SDS011;13951;49.516;6.094;2024-01-15T09:12:16;21.13;;;8.93;;
26211;SDS011;13951;49.516;6.094;2024-01-15T09:14:51;17.97;;;7.83;;
26211;SDS011;13951;49.516;6.094;2024-01-15T09:17:26;18.40;;;7.63;;
26211;SDS011;13951;49.516;6.094;2024-01-15T09:20:00;16.47;;;7.77;;
26211;SDS011;13951;49.516;6.094;2024-01-15T09:22:34;17.00;;;7.43;;
26211;SDS011;13951;49.516;6.094;2024-01-15T09:25:07;20.10;;;8.10;;
26211;SDS011;13951;49.516;6.094;2024-01-15T09:27:44;19.00;;;8.00;;
26211;SDS011;13951;49.516;6.094;2024-01-15T09:30:18;16.30;;;7.67;;
26211;SDS011;13951;49.516;6.094;2024-01-15T09:32:51;18.70;;;7.97;;
26211;SDS011;13951;49.516;6.094;2024-01-15T09:35:24;13.43;;;7.30;;
26211;SDS011;13951;49.516;6.094;2024-01-15T09:37:57;15.90;;;7.17;;
26211;SDS011;13951;49.516;6.094;2024-01-15T09:40:31;13.53;;;6.43;;
26211;SDS011;13951;49.516;6.094;2024-01-15T09:43:05;13.17;;;6.30;;
26211;SDS011;13951;49.516;6.094;2024-01-15T09:45:39;12.13;;;6.57;;
26211;SDS011;13951;49.516;6.094;2024-01-15T09:48:12;11.40;;;6.37;;
26211;SDS011;13951;49.516;6.094;2024-01-15T09:50:46;12.73;;;6.60;;
26211;SDS011;13951;49.516;6.094;2024-01-15T09:53:19;12.33;;;6.93;;
26211;SDS011;13951;49.516;6.094;2024-01-15T09:55:53;19.10;;;7.20;;
26211;SDS011;13951;49.516;6.094;2024-01-15T09:58:26;18.57;;;7.20;;
26211;SDS011;13951;49.516;6.094;2024-01-15T10:01:02;16.03;;;7.40;;
26211;SDS011;13951;49.516;6.094;2024-01-15T10:03:40;13.53;;;6.47;;
26211;SDS011;13951;49.516;6.094;2024-01-15T10:06:17;8.57;;;4.70;;
26211;SDS011;13951;49.516;6.094;2024-01-15T10:08:54;14.40;;;7.47;;
26211;SDS011;13951;49.516;6.094;2024-01-15T10:11:30;13.43;;;6.77;;
26211;SDS011;13951;49.516;6.094;2024-01-15T10:14:04;17.20;;;7.07;;
26211;SDS011;13951;49.516;6.094;2024-01-15T10:16:38;15.33;;;7.53;;
26211;SDS011;13951;49.516;6.094;2024-01-15T10:19:12;15.90;;;7.77;;
26211;SDS011;13951;49.516;6.094;2024-01-15T10:21:45;14.67;;;8.10;;
26211;SDS011;13951;49.516;6.094;2024-01-15T10:24:19;14.97;;;6.57;;
26211;SDS011;13951;49.516;6.094;2024-01-15T10:26:52;17.23;;;8.07;;
26211;SDS011;13951;49.516;6.094;2024-01-15T10:29:38;19.60;;;9.30;;
26211;SDS011;13951;49.516;6.094;2024-01-15T10:32:14;15.90;;;7.67;;
26211;SDS011;13951;49.516;6.094;2024-01-15T10:34:47;17.33;;;8.30;;
26211;SDS011;13951;49.516;6.094;2024-01-15T10:37:24;17.50;;;8.33;;
26211;SDS011;13951;49.516;6.094;2024-01-15T10:40:02;17.90;;;7.80;;
26211;SDS011;13951;49.516;6.094;2024-01-15T10:42:37;20.90;;;9.23;;
26211;SDS011;13951;49.516;6.094;2024-01-15T10:45:10;16.30;;;8.13;;
26211;SDS011;13951;49.516;6.094;2024-01-15T10:47:44;17.80;;;8.60;;
26211;SDS011;13951;49.516;6.094;2024-01-15T10:50:17;20.47;;;9.40;;
26211;SDS011;13951;49.516;6.094;2024-01-15T10:52:51;20.03;;;9.40;;
26211;SDS011;13951;49.516;6.094;2024-01-15T10:55:24;18.43;;;9.13;;
26211;SDS011;13951;49.516;6.094;2024-01-15T10:57:59;20.73;;;9.20;;
26211;SDS011;13951;49.516;6.094;2024-01-15T11:00:33;16.27;;;8.67;;
26211;SDS011;13951;49.516;6.094;2024-01-15T11:03:08;18.27;;;9.23;;
26211;SDS011;13951;49.516;6.094;2024-01-15T11:05:43;17.33;;;8.50;;
26211;SDS011;13951;49.516;6.094;2024-01-15T11:08:17;18.10;;;9.13;;
26211;SDS011;13951;49.516;6.094;2024-01-15T11:10:51;20.10;;;9.70;;
26211;SDS011;13951;49.516;6.094;2024-01-15T11:16:07;22.60;;;10.10;;
26211;SDS011;13951;49.516;6.094;2024-01-15T11:21:30;18.87;;;8.30;;
26211;SDS011;13951;49.516;6.094;2024-01-15T11:24:03;20.57;;;9.73;;
26211;SDS011;13951;49.516;6.094;2024-01-15T11:26:46;19.40;;;8.90;;
26211;SDS011;13951;49.516;6.094;2024-01-15T11:32:07;20.87;;;10.10;;
26211;SDS011;13951;49.516;6.094;2024-01-15T11:37:56;15.97;;;7.27;;
26211;SDS011;13951;49.516;6.094;2024-01-15T11:43:06;19.87;;;9.03;;
26211;SDS011;13951;49.516;6.094;2024-01-15T11:45:42;17.60;;;8.40;;
26211;SDS011;13951;49.516;6.094;2024-01-15T11:48:16;19.53;;;10.03;;
26211;SDS011;13951;49.516;6.094;2024-01-15T11:50:50;18.03;;;9.13;;
26211;SDS011;13951;49.516;6.094;2024-01-15T11:53:36;21.17;;;9.70;;
26211;SDS011;13951;49.516;6.094;2024-01-15T11:56:16;21.33;;;10.30;;
26211;SDS011;13951;49.516;6.094;2024-01-15T11:58:50;18.70;;;9.90;;
26211;SDS011;13951;49.516;6.094;2024-01-15T12:01:24;21.47;;;9.87;;
26211;SDS011;13951;49.516;6.094;2024-01-15T12:03:57;18.17;;;8.60;;
26211;SDS011;13951;49.516;6.094;2024-01-15T12:06:31;17.83;;;9.30;;
26211;SDS011;13951;49.516;6.094;2024-01-15T12:09:07;15.53;;;7.57;;
26211;SDS011;13951;49.516;6.094;2024-01-15T12:11:42;17.60;;;8.67;;
26211;SDS011;13951;49.516;6.094;2024-01-15T12:14:23;16.73;;;8.50;;
26211;SDS011;13951;49.516;6.094;2024-01-15T12:16:56;16.13;;;8.20;;
26211;SDS011;13951;49.516;6.094;2024-01-15T12:19:30;18.07;;;8.60;;
26211;SDS011;13951;49.516;6.094;2024-01-15T12:22:04;18.47;;;8.20;;
26211;SDS011;13951;49.516;6.094;2024-01-15T12:24:37;17.17;;;8.10;;
26211;SDS011;13951;49.516;6.094;2024-01-15T12:27:10;15.93;;;7.63;;
26211;SDS011;13951;49.516;6.094;2024-01-15T12:29:44;11.97;;;7.03;;
26211;SDS011;13951;49.516;6.094;2024-01-15T12:32:18;13.90;;;6.83;;
26211;SDS011;13951;49.516;6.094;2024-01-15T12:34:55;14.60;;;7.13;;
26211;SDS011;13951;49.516;6.094;2024-01-15T12:37:29;11.63;;;6.90;;
26211;SDS011;13951;49.516;6.094;2024-01-15T12:40:02;13.37;;;6.83;;
26211;SDS011;13951;49.516;6.094;2024-01-15T12:42:39;12.97;;;6.80;;
26211;SDS011;13951;49.516;6.094;2024-01-15T12:45:12;11.73;;;6.00;;
26211;SDS011;13951;49.516;6.094;2024-01-15T12:47:46;17.67;;;6.67;;
26211;SDS011;13951;49.516;6.094;2024-01-15T12:50:20;11.90;;;6.83;;
26211;SDS011;13951;49.516;6.094;2024-01-15T12:52:57;11.13;;;6.17;;
26211;SDS011;13951;49.516;6.094;2024-01-15T12:55:32;12.07;;;6.27;;
26211;SDS011;13951;49.516;6.094;2024-01-15T12:58:07;11.67;;;6.63;;
26211;SDS011;13951;49.516;6.094;2024-01-15T13:00:40;11.10;;;6.10;;
26211;SDS011;13951;49.516;6.094;2024-01-15T13:03:13;13.20;;;6.07;;
26211;SDS011;13951;49.516;6.094;2024-01-15T13:05:46;11.37;;;6.07;;
26211;SDS011;13951;49.516;6.094;2024-01-15T13:08:20;10.80;;;5.83;;
26211;SDS011;13951;49.516;6.094;2024-01-15T13:10:55;10.63;;;5.87;;
26211;SDS011;13951;49.516;6.094;2024-01-15T13:13:29;11.53;;;5.33;;
26211;SDS011;13951;49.516;6.094;2024-01-15T13:16:03;10.07;;;5.33;;
26211;SDS011;13951;49.516;6.094;2024-01-15T13:18:37;11.57;;;5.60;;
26211;SDS011;13951;49.516;6.094;2024-01-15T13:21:10;9.43;;;5.17;;
26211;SDS011;13951;49.516;6.094;2024-01-15T13:23:45;10.57;;;4.10;;
26211;SDS011;13951;49.516;6.094;2024-01-15T13:26:18;8.70;;;3.93;;
26211;SDS011;13951;49.516;6.094;2024-01-15T13:28:52;7.07;;;3.20;;
26211;SDS011;13951;49.516;6.094;2024-01-15T13:31:26;7.37;;;3.50;;
26211;SDS011;13951;49.516;6.094;2024-01-15T13:34:00;7.17;;;3.77;;
26211;SDS011;13951;49.516;6.094;2024-01-15T13:36:33;6.77;;;3.73;;
26211;SDS011;13951;49.516;6.094;2024-01-15T13:39:07;5.50;;;3.13;;
26211;SDS011;13951;49.516;6.094;2024-01-15T13:41:43;6.73;;;3.73;;
26211;SDS011;13951;49.516;6.094;2024-01-15T13:44:17;4.97;;;3.33;;
26211;SDS011;13951;49.516;6.094;2024-01-15T13:46:50;5.13;;;3.00;;
26211;SDS011;13951;49.516;6.094;2024-01-15T13:49:25;7.43;;;3.93;;
26211;SDS011;13951;49.516;6.094;2024-01-15T13:51:58;4.30;;;3.27;;
26211;SDS011;13951;49.516;6.094;2024-01-15T13:54:31;5.97;;;2.90;;
26211;SDS011;13951;49.516;6.094;2024-01-15T13:57:21;6.40;;;3.63;;
26211;SDS011;13951;49.516;6.094;2024-01-15T13:59:55;7.73;;;4.20;;
26211;SDS011;13951;49.516;6.094;2024-01-15T14:02:28;5.67;;;3.40;;
26211;SDS011;13951;49.516;6.094;2024-01-15T14:05:01;5.00;;;3.40;;
26211;SDS011;13951;49.516;6.094;2024-01-15T14:07:34;6.73;;;3.27;;
26211;SDS011;13951;49.516;6.094;2024-01-15T14:10:08;5.00;;;2.37;;
26211;SDS011;13951;49.516;6.094;2024-01-15T14:12:42;5.10;;;2.90;;
26211;SDS011;13951;49.516;6.094;2024-01-15T14:15:15;3.27;;;1.90;;
26211;SDS011;13951;49.516;6.094;2024-01-15T14:17:49;4.70;;;2.90;;
26211;SDS011;13951;49.516;6.094;2024-01-15T14:20:22;4.10;;;2.17;;
26211;SDS011;13951;49.516;6.094;2024-01-15T14:22:55;5.80;;;2.10;;
26211;SDS011;13951;49.516;6.094;2024-01-15T14:25:28;6.07;;;2.33;;
26211;SDS011;13951;49.516;6.094;2024-01-15T14:28:02;4.10;;;2.40;;
26211;SDS011;13951;49.516;6.094;2024-01-15T14:30:35;6.77;;;2.73;;
26211;SDS011;13951;49.516;6.094;2024-01-15T14:33:08;4.60;;;2.63;;
26211;SDS011;13951;49.516;6.094;2024-01-15T14:35:42;4.47;;;2.70;;
26211;SDS011;13951;49.516;6.094;2024-01-15T14:38:15;3.53;;;2.23;;
26211;SDS011;13951;49.516;6.094;2024-01-15T14:40:48;4.00;;;2.80;;
26211;SDS011;13951;49.516;6.094;2024-01-15T14:43:22;7.43;;;2.67;;
26211;SDS011;13951;49.516;6.094;2024-01-15T14:45:55;4.43;;;2.20;;
26211;SDS011;13951;49.516;6.094;2024-01-15T14:48:29;3.67;;;2.10;;
26211;SDS011;13951;49.516;6.094;2024-01-15T14:51:02;3.30;;;2.47;;
26211;SDS011;13951;49.516;6.094;2024-01-15T14:53:35;6.40;;;3.17;;
26211;SDS011;13951;49.516;6.094;2024-01-15T14:56:08;4.00;;;2.30;;
26211;SDS011;13951;49.516;6.094;2024-01-15T14:58:42;4.27;;;2.30;;
26211;SDS011;13951;49.516;6.094;2024-01-15T15:01:15;5.97;;;2.23;;
26211;SDS011;13951;49.516;6.094;2024-01-15T15:03:48;6.13;;;2.60;;
26211;SDS011;13951;49.516;6.094;2024-01-15T15:06:22;4.43;;;2.67;;
26211;SDS011;13951;49.516;6.094;2024-01-15T15:09:00;4.57;;;2.50;;
26211;SDS011;13951;49.516;6.094;2024-01-15T15:11:34;4.07;;;2.30;;
26211;SDS011;13951;49.516;6.094;2024-01-15T15:14:07;3.93;;;2.43;;
26211;SDS011;13951;49.516;6.094;2024-01-15T15:16:41;5.40;;;2.70;;
26211;SDS011;13951;49.516;6.094;2024-01-15T15:19:14;5.20;;;2.57;;
26211;SDS011;13951;49.516;6.094;2024-01-15T15:21:47;5.07;;;3.13;;
26211;SDS011;13951;49.516;6.094;2024-01-15T15:24:21;6.77;;;2.20;;